KGWW

Details ICAO KGWW
Name GOLDSBORO WAYNE MUNI
Region United States
Timezone America/New_York (UTC-4.0)
Plans Departing 9
Arriving 3
Stats Elevation 134 ft / 41 m (AMSL)
Location 35.460553° -77.964930°
Runways 1
Magnetic Variation 9.627° W
Sunrise 2018-05-23 10:03:23 UTC / 2018-05-23 06:03:23 Local
Sunset 2018-05-24 00:16:44 UTC / 2018-05-23 20:16:44 Local
Advertisement - Login to hide

Runways

ID Width Length Bearing (true) Bearing (mag) Surface Threshold Offset Overrun Length
05 100 ft / 30 m 5,502 ft / 1,677 m 43.18° 52.81° Asphalt 0 ft / 0 m 500 ft / 152 m
23 100 ft / 30 m 5,502 ft / 1,677 m 223.19° 232.82° Asphalt 0 ft / 0 m 0 ft / 0 m

Map

Weather


0- 5 10 15 20 25 30 35+ Temperature / ° C

Clouds and Precipitation
Forecast for 2018-05-23 12:00 UTC. Updated 5 minutes ago

Ground ~20,000 ft ~40,000 ft Winds

METAR

KGWW 231120Z AUTO 21009G15KT 10SM BKN008 22/22 A3006 RMK AO2 T02150215

TAF

Not found

Frequencies

Recorded 118.97 MHz AWOS 3
Approach 123.70 MHz SEY JOHNSON APP DEP
Unicom 122.70 MHz CTAF/UNICOM
Warning: Do not use this data for real-world aviation or navigation. No guarantee of current accuracy is given.